METAR / TAF

La liste des METAR et des TAF n’est pas destinée pour un briefing météo pour des raisons techniques (disponibilité, cycle de renouvellement). Il faut plutôt utiliser le skybriefing de Skyguide ou le TAMSI (plateforme de self-briefing météo conçue par MétéoSuisse pour les entreprises dans le domaine de l’aéronautique, questions et demandes d’informations à 

Formulaire de contact

 

METAR Suisse

METAR     LSZH 162050Z 18002KT CAVOK 07/05 Q1016 NOSIG=
METAR     LSZH 162120Z VRB02KT CAVOK 08/06 Q1016 NOSIG=
METAR     LSGG 162050Z VRB01KT CAVOK 09/08 Q1017 NOSIG=
METAR     LSGG 162120Z VRB02KT CAVOK 09/08 Q1017 NOSIG=
METAR     LFSB 162130Z 17007KT CAVOK 11/08 Q1015 NOSIG=
METAR     LSZB 162050Z AUTO VRB02KT CAVOK 06/06 Q1017=
METAR     LSZB 162120Z AUTO VRB01KT 9999 NSC 06/06 Q1016=
METAR     LSZA 162050Z AUTO VRB01KT CAVOK 10/10 Q1020=
METAR     LSZA 162120Z AUTO 35002KT CAVOK 09/09 Q1020=
METAR     LSZG 162050Z AUTO 00000KT 0450 FG VV002 06/06 Q1017=
METAR     LSZG 162120Z AUTO 00000KT 4700 BR NCD 06/06 Q1017=
METAR     LSZR 162050Z AUTO VRB01KT CAVOK 08/08 Q1016=
METAR     LSZR 162120Z AUTO 22002KT CAVOK 07/07 Q1016=
METAR     LSGS 162050Z AUTO VRB02KT CAVOK 09/06 Q1018=
METAR     LSGS 162120Z AUTO VRB02KT CAVOK 09/06 Q1018=
METAR     LSGC 162050Z AUTO 26003KT CAVOK 09/02 Q1016=
METAR     LSGC 162120Z AUTO 25003KT CAVOK 07/03 Q1016=
METAR     LSZC 162050Z AUTO 27004KT 230V310 CAVOK 09/06 Q1017=
METAR     LSZC 162120Z AUTO 23004KT CAVOK 08/05 Q1017=
METAR RRA LSZL 162050Z AUTO 00000KT 9999NDV FEW220 09/09 Q1020 RMK=
METAR     LSZL 162120Z AUTO 00000KT 9999NDV NCD 09/09 Q1020 RMK=
METAR     LSZS 162050Z AUTO VRB02KT CAVOK M00/M00 Q1021=
METAR     LSZS 162120Z AUTO 19002KT CAVOK M01/M01 Q1021=
METAR RRA LSMA 162050Z AUTO VRB02KT 9999NDV NCD 07/06 Q1017 RMK=
METAR     LSMA 162120Z AUTO VRB02KT 9999NDV NCD 07/05 Q1017 RMK=
METAR RRA LSMD 162050Z AUTO VRB01KT 9999NDV NCD 07/06 Q1016 RMK=
METAR     LSMD 162120Z AUTO VRB02KT 9999NDV NCD 06/04 Q1016 RMK=
METAR RRA LSME 162050Z AUTO 00000KT 9999NDV NCD 09/07 Q1017 RMK=
METAR     LSME 162120Z AUTO 21003KT 160V250 9999NDV NCD 09/07 Q1017
               RMK=
METAR RRA LSMM 162050Z AUTO VRB02KT 9999NDV NCD 05/04 Q1017 RMK=
METAR     LSMM 162120Z AUTO 00000KT 9999NDV NCD 04/04 Q1017 RMK=
METAR RRA LSMP 162050Z AUTO 00000KT 9999NDV NCD 08/06 Q1016 RMK=
METAR     LSMP 162120Z AUTO VRB01KT 9999NDV NCD 08/06 Q1017 RMK=
Actualisé le mercredi 16 octobre 2019 à 23h42

TAF Suisse

TAF     LSZH 162025Z 1621/1803 VRB03KT CAVOK TX18/1714Z TN06/1704Z
             PROB40 1700/1707 4500 MIFG NSC PROB30 1702/1706 1500
             BCFG NSC BECMG 1718/1721 9999 BKN070 PROB40 TEMPO
             1720/1803 RA=
TAF     LSGG 162025Z 1621/1803 23006KT CAVOK TX18/1715Z TN08/1705Z
             BECMG 1712/1714 9999 FEW040 BKN090 TEMPO 1717/1803 RA
             BKN040=
TAF     LFSB 161700Z 1618/1718 14005KT CAVOK PROB40 TEMPO 1701/1706
             -RA BKN050 BECMG 1714/1716 -RA BKN040=
TAF AAG LSGS 162008Z 1620/1624 CNL=
TAF     LSGS 161425Z 1615/1624 VRB03KT CAVOK=
TAF AAF LSZA 161950Z 1619/1624 CNL=
TAF     LSZA 161425Z 1615/1624 VRB03KT CAVOK=
TAF AAA LSZB 161950Z 1619/1624 CNL=
TAF     LSZB 161425Z 1615/1624 VRB03KT CAVOK TEMPO 1622/1624 9999
             SCT120=
TAF AAB LSZG 161950Z 1619/1624 CNL=
TAF     LSZG 161425Z 1615/1624 VRB03KT CAVOK PROB40 1621/1624 4000
             MIFG NSC=
TAF     LSZL 161725Z 1618/1703 VRB03KT CAVOK PROB40 1700/1703 4000
             MIFG=
TAF AAC LSZR 161950Z 1619/1624 CNL=
TAF     LSZR 161425Z 1615/1624 30005KT CAVOK=
TAF AAH LSGC 162008Z 1620/1624 CNL=
TAF     LSGC 161425Z 1615/1624 25005KT CAVOK=
TAF AAE LSZC 161950Z 1619/1624 CNL=
TAF     LSZC 161425Z 1615/1624 VRB03KT CAVOK=
TAF AAD LSZS 161950Z 1619/1624 CNL=
TAF     LSZS 161425Z 1615/1624 VRB03KT CAVOK TX11/1615Z=
TAF     LSMA 161625Z 1617/1723 VRB03KT CAVOK BECMG 1701/1704 9999
             BKN090=
TAF     LSMD 161625Z 1617/1723 VRB03KT CAVOK PROB40 1700/1706 1500
             BCFG BECMG 1701/1704 9999 BKN090 TEMPO 1708/1718
             CAVOK=
TAF     LSME 161625Z 1617/1723 VRB03KT CAVOK PROB40 1700/1706 1500
             BCFG BECMG 1701/1704 9999 BKN090 TEMPO 1708/1718
             CAVOK=
TAF     LSMM 161625Z 1617/1723 VRB03KT CAVOK BECMG 1701/1704 9999
             BKN090=
TAF     LSMP 161625Z 1617/1723 26004KT CAVOK BECMG 1712/1714 9999
             FEW040 BKN080 TEMPO 1717/1721 RA BKN040=
Actualisé le mercredi 16 octobre 2019 à 23h38